Time;durP1;ratioP1;P1;durP2;ratioP2;P2;SDS_P1;SDS_P2;PMS_P1;PMS_P2;Temp;Humidity;BMP_temperature;BMP_pressure;BME280_temperature;BME280_humidity;BME280_pressure;Samples;Min_cycle;Max_cycle;Signal;HPM_P1;HPM_P2
2023/01/22 00:01:08;;;;;;;19.42;9.98;;;0.70;99.90;;;;;;5070756;28;20094;-68
2023/01/22 00:03:35;;;;;;;18.08;10.95;;;0.70;99.90;;;;;;5070588;28;20063;-68
2023/01/22 00:06:01;;;;;;;19.35;10.82;;;0.80;99.90;;;;;;5070059;28;20119;-68
2023/01/22 00:08:26;;;;;;;18.08;9.40;;;0.80;99.90;;;;;;5069223;28;20143;-68
2023/01/22 00:10:54;;;;;;;19.80;10.70;;;0.80;99.90;;;;;;5070892;28;20044;-68
2023/01/22 00:13:20;;;;;;;20.13;11.10;;;0.70;99.90;;;;;;5070481;28;20119;-67
2023/01/22 00:15:46;;;;;;;19.60;10.20;;;0.70;99.90;;;;;;5070089;28;20068;-68
2023/01/22 00:18:12;;;;;;;19.63;11.32;;;0.80;99.90;;;;;;5069467;28;20072;-67
2023/01/22 00:20:37;;;;;;;16.95;9.35;;;0.70;99.90;;;;;;5048887;28;20126;-68
2023/01/22 00:23:03;;;;;;;18.33;9.50;;;0.70;99.90;;;;;;5050135;28;20496;-68
2023/01/22 00:25:29;;;;;;;22.75;11.20;;;0.60;99.90;;;;;;5049878;28;20041;-68
2023/01/22 00:27:54;;;;;;;16.73;9.35;;;0.70;99.90;;;;;;5049415;28;20090;-68
2023/01/22 00:30:20;;;;;;;20.05;10.48;;;0.50;99.90;;;;;;5050401;28;20036;-67
2023/01/22 00:32:46;;;;;;;16.60;9.52;;;0.60;99.90;;;;;;5050246;28;20043;-68
2023/01/22 00:35:12;;;;;;;24.42;9.93;;;0.60;99.90;;;;;;5049504;28;20095;-68
2023/01/22 00:37:38;;;;;;;18.48;9.38;;;0.60;99.90;;;;;;5050568;28;20045;-68
2023/01/22 00:40:04;;;;;;;19.40;9.35;;;0.50;99.90;;;;;;5050459;28;20037;-68
2023/01/22 00:42:29;;;;;;;18.00;9.48;;;0.50;99.90;;;;;;5049240;28;20461;-68
2023/01/22 00:44:55;;;;;;;18.27;9.95;;;0.50;99.90;;;;;;5049499;28;20036;-68
2023/01/22 00:47:20;;;;;;;20.13;9.70;;;0.50;99.90;;;;;;5051384;28;20045;-68
2023/01/22 00:49:46;;;;;;;22.83;10.55;;;0.60;99.90;;;;;;5054207;28;20045;-68
2023/01/22 00:52:11;;;;;;;22.42;10.05;;;0.50;99.90;;;;;;5054046;28;20132;-67
2023/01/22 00:54:37;;;;;;;20.05;10.73;;;0.50;99.90;;;;;;5051970;28;20037;-67
2023/01/22 00:57:03;;;;;;;23.27;10.98;;;0.50;99.90;;;;;;5053916;28;20562;-67
2023/01/22 00:59:28;;;;;;;20.88;11.07;;;0.40;99.90;;;;;;5058730;28;20032;-68
2023/01/22 01:01:54;;;;;;;23.77;11.57;;;0.40;99.90;;;;;;5073556;28;20033;-68
2023/01/22 01:04:20;;;;;;;24.98;11.00;;;0.40;99.90;;;;;;5071825;28;20048;-68
2023/01/22 01:06:45;;;;;;;21.27;10.65;;;0.30;99.90;;;;;;5073836;28;20041;-67
2023/01/22 01:09:11;;;;;;;23.92;12.20;;;0.30;99.90;;;;;;5073457;28;20032;-67
2023/01/22 01:11:37;;;;;;;20.10;10.82;;;0.30;99.90;;;;;;5073710;28;20045;-67
2023/01/22 01:14:02;;;;;;;21.88;11.45;;;0.20;99.90;;;;;;5072802;28;20078;-68
2023/01/22 01:16:30;;;;;;;28.67;13.57;;;0.20;99.90;;;;;;5073385;28;20037;-68
2023/01/22 01:19:01;;;;;;;21.15;12.20;;;0.20;99.90;;;;;;5073242;28;20032;-68
2023/01/22 01:21:27;;;;;;;41.13;20.23;;;0.20;99.90;;;;;;5073630;28;20048;-68
2023/01/22 01:23:54;;;;;;;56.13;26.10;;;0.30;99.90;;;;;;5072601;28;20079;-68
2023/01/22 01:26:20;;;;;;;48.35;23.77;;;0.30;99.90;;;;;;5073341;28;20098;-68
2023/01/22 01:28:46;;;;;;;71.22;30.60;;;0.30;99.90;;;;;;5073229;28;20500;-68
2023/01/22 01:31:15;;;;;;;58.97;26.25;;;0.20;99.90;;;;;;5071937;28;20099;-68
2023/01/22 01:33:41;;;;;;;48.55;22.48;;;0.20;99.90;;;;;;5073022;28;20132;-68
2023/01/22 01:36:10;;;;;;;45.33;22.25;;;0.10;99.90;;;;;;5072743;28;20109;-68
2023/01/22 01:38:36;;;;;;;33.85;18.02;;;0.10;99.90;;;;;;5071764;28;20036;-68
2023/01/22 01:41:03;;;;;;;31.10;16.35;;;0.00;99.90;;;;;;5072841;28;20036;-68
2023/01/22 01:43:28;;;;;;;43.58;20.52;;;0.10;99.90;;;;;;5073133;28;20075;-69
2023/01/22 01:45:56;;;;;;;31.92;15.55;;;0.10;99.90;;;;;;5071902;28;20498;-68
2023/01/22 01:48:46;;;;;;;34.22;16.33;;;0.10;99.90;;;;;;5071922;28;20682;-69
2023/01/22 01:51:35;;;;;;;24.13;13.30;;;0.00;99.90;;;;;;5071481;28;20124;-68
2023/01/22 01:54:03;;;;;;;24.58;13.63;;;0.00;99.90;;;;;;5063957;28;20541;-68
2023/01/22 01:56:34;;;;;;;27.17;13.70;;;0.10;99.90;;;;;;5071211;28;20098;-68
2023/01/22 01:59:04;;;;;;;28.95;15.13;;;0.00;99.90;;;;;;5070887;28;20032;-68
2023/01/22 02:01:31;;;;;;;25.08;14.23;;;0.10;99.90;;;;;;5072492;28;20119;-68
2023/01/22 02:03:59;;;;;;;33.38;17.17;;;0.00;99.90;;;;;;5070501;28;20052;-68
2023/01/22 02:06:25;;;;;;;33.78;15.80;;;0.10;99.90;;;;;;5070942;28;20119;-68
2023/01/22 02:08:52;;;;;;;26.48;13.80;;;0.10;99.90;;;;;;5071113;28;20048;-68
2023/01/22 02:11:19;;;;;;;22.58;12.50;;;0.10;99.90;;;;;;5072558;28;20090;-68
2023/01/22 02:14:05;;;;;;;24.77;13.10;;;0.10;99.90;;;;;;5071685;28;20076;-68
2023/01/22 02:16:31;;;;;;;30.48;15.07;;;0.20;99.90;;;;;;5072508;28;20040;-68
2023/01/22 02:18:56;;;;;;;26.13;11.90;;;0.10;99.90;;;;;;5072390;28;20079;-68
2023/01/22 02:21:31;;;;;;;28.10;15.38;;;0.10;99.90;;;;;;5071164;28;20135;-68
2023/01/22 02:23:57;;;;;;;23.27;12.23;;;0.20;99.90;;;;;;5071524;28;20045;-68
2023/01/22 02:26:23;;;;;;;24.13;13.13;;;0.20;99.90;;;;;;5070785;28;20139;-68
2023/01/22 02:28:48;;;;;;;21.65;12.27;;;0.10;99.90;;;;;;5070768;28;20116;-68
2023/01/22 02:31:14;;;;;;;23.42;10.98;;;0.20;99.90;;;;;;5071934;28;20043;-68
2023/01/22 02:33:40;;;;;;;22.58;11.95;;;0.20;99.90;;;;;;5071972;28;20056;-68
2023/01/22 02:36:06;;;;;;;20.33;11.23;;;0.20;99.90;;;;;;5069884;28;20094;-68
2023/01/22 02:38:31;;;;;;;24.95;11.65;;;0.20;99.90;;;;;;5072079;28;20456;-68
2023/01/22 02:40:57;;;;;;;23.75;12.18;;;0.30;99.90;;;;;;5071838;28;20040;-68
2023/01/22 02:43:23;;;;;;;18.67;10.93;;;0.30;99.90;;;;;;5070429;28;20052;-69
2023/01/22 02:45:49;;;;;;;15.80;8.70;;;0.30;99.90;;;;;;5070903;28;20041;-68
2023/01/22 02:48:15;;;;;;;18.52;9.90;;;0.30;99.90;;;;;;5071766;28;20040;-68
2023/01/22 02:50:40;;;;;;;15.70;9.00;;;0.40;99.90;;;;;;5071780;28;20606;-68
2023/01/22 02:53:06;;;;;;;15.23;8.32;;;0.50;99.90;;;;;;5071583;28;20045;-68
2023/01/22 02:55:32;;;;;;;15.75;8.75;;;0.60;99.90;;;;;;5070869;28;20042;-68
2023/01/22 02:57:57;;;;;;;15.60;7.53;;;0.70;99.90;;;;;;5071497;28;20032;-68
2023/01/22 03:00:23;;;;;;;18.23;8.32;;;0.70;99.90;;;;;;5070264;28;20114;-68
2023/01/22 03:02:49;;;;;;;14.98;8.23;;;0.80;99.90;;;;;;5071278;28;20485;-68
2023/01/22 03:05:14;;;;;;;12.75;6.93;;;0.90;99.90;;;;;;5070480;28;20040;-68
2023/01/22 03:07:43;;;;;;;12.98;7.20;;;0.90;99.90;;;;;;5069920;28;20504;-68
2023/01/22 03:10:18;;;;;;;15.00;8.73;;;0.90;99.90;;;;;;5069459;28;20040;-68
2023/01/22 03:21:17;;;;;;;14.48;8.02;;;1.00;99.90;;;;;;5071213;28;20049;-68
2023/01/22 03:23:48;;;;;;;13.60;7.82;;;1.00;99.90;;;;;;5069676;28;20408;-68
2023/01/22 03:26:15;;;;;;;11.40;6.95;;;1.00;99.90;;;;;;5071218;28;20078;-68
2023/01/22 03:28:40;;;;;;;15.35;7.93;;;1.00;99.90;;;;;;5071028;28;20093;-69
2023/01/22 03:31:06;;;;;;;12.50;7.13;;;1.00;99.90;;;;;;5070621;28;20048;-68
2023/01/22 03:33:33;;;;;;;10.48;6.65;;;1.00;99.90;;;;;;5070945;28;20043;-68
2023/01/22 03:36:00;;;;;;;12.10;7.32;;;1.10;99.90;;;;;;5068774;28;20119;-68
2023/01/22 03:38:26;;;;;;;11.75;7.68;;;1.00;99.90;;;;;;5070818;28;20558;-68
2023/01/22 03:40:52;;;;;;;12.40;7.22;;;1.10;99.90;;;;;;5069771;28;20041;-68
2023/01/22 03:43:17;;;;;;;12.50;7.15;;;1.00;99.90;;;;;;5071051;28;20044;-68
2023/01/22 03:45:43;;;;;;;9.68;6.30;;;1.10;99.90;;;;;;5070250;28;20075;-68
2023/01/22 03:48:08;;;;;;;11.15;6.55;;;1.10;99.90;;;;;;5069569;28;20049;-68
2023/01/22 03:50:35;;;;;;;10.57;5.68;;;1.10;99.90;;;;;;5069883;28;20043;-68
2023/01/22 03:53:02;;;;;;;11.13;6.55;;;1.00;99.90;;;;;;5069327;28;20059;-68
2023/01/22 03:55:28;;;;;;;10.95;6.57;;;1.10;99.90;;;;;;5068941;28;20040;-68
2023/01/22 03:57:54;;;;;;;12.25;6.38;;;1.10;99.90;;;;;;5069285;28;20045;-68
2023/01/22 04:00:20;;;;;;;11.88;6.95;;;1.10;99.90;;;;;;5070975;28;20495;-68
2023/01/22 04:02:45;;;;;;;10.63;6.30;;;1.10;99.90;;;;;;5069225;28;20489;-69
2023/01/22 04:05:12;;;;;;;9.32;6.40;;;1.10;99.90;;;;;;5069785;28;20047;-68
2023/01/22 04:07:37;;;;;;;10.05;5.90;;;1.10;99.90;;;;;;5070375;28;20102;-68
2023/01/22 04:10:03;;;;;;;10.88;6.80;;;1.10;99.90;;;;;;5070424;28;20044;-69
2023/01/22 04:12:28;;;;;;;9.32;5.50;;;1.10;99.90;;;;;;5070577;28;20067;-68
2023/01/22 04:14:54;;;;;;;11.60;6.90;;;1.10;99.90;;;;;;5068272;28;20699;-68
2023/01/22 04:17:20;;;;;;;9.18;6.03;;;1.10;99.90;;;;;;5070503;28;20480;-68
2023/01/22 04:19:45;;;;;;;11.38;5.93;;;1.10;99.90;;;;;;5070647;28;20051;-68
2023/01/22 04:22:11;;;;;;;15.30;6.57;;;1.10;99.90;;;;;;5070244;28;20040;-68
2023/01/22 04:24:36;;;;;;;11.88;6.57;;;1.10;99.90;;;;;;5073843;28;20583;-68
2023/01/22 04:27:02;;;;;;;8.95;6.60;;;1.10;99.90;;;;;;5074465;28;20496;-68
2023/01/22 04:29:27;;;;;;;9.00;6.18;;;1.10;99.90;;;;;;5073059;28;20043;-69
2023/01/22 04:31:53;;;;;;;12.30;6.68;;;1.00;99.90;;;;;;5074275;28;20040;-68
2023/01/22 04:34:19;;;;;;;12.75;7.50;;;1.10;99.90;;;;;;5072125;28;20044;-68
2023/01/22 04:36:44;;;;;;;21.23;10.77;;;1.10;99.90;;;;;;5072713;28;20147;-68
2023/01/22 04:39:10;;;;;;;12.48;8.10;;;1.10;99.90;;;;;;5074415;28;20037;-69
2023/01/22 04:41:35;;;;;;;11.57;6.68;;;1.20;99.90;;;;;;5074150;28;20033;-68
2023/01/22 04:44:01;;;;;;;10.63;6.45;;;1.10;99.90;;;;;;5073520;28;20047;-68
2023/01/22 04:46:26;;;;;;;10.35;6.75;;;1.20;99.90;;;;;;5072562;28;20060;-68
2023/01/22 04:48:52;;;;;;;9.27;6.82;;;1.10;99.90;;;;;;5074092;28;20151;-68
2023/01/22 04:51:17;;;;;;;8.75;6.68;;;1.20;99.90;;;;;;5074077;28;20040;-68
2023/01/22 04:53:43;;;;;;;10.95;6.45;;;1.10;99.90;;;;;;5073579;28;20128;-68
2023/01/22 04:56:09;;;;;;;9.15;7.38;;;1.10;99.90;;;;;;5073546;28;20041;-68
2023/01/22 04:58:34;;;;;;;12.88;7.53;;;1.10;99.90;;;;;;5073908;28;20632;-68
2023/01/22 05:01:00;;;;;;;8.38;6.32;;;1.10;99.90;;;;;;5072500;28;20067;-68
2023/01/22 05:03:25;;;;;;;8.98;7.20;;;1.10;99.90;;;;;;5073822;28;20049;-68
2023/01/22 05:05:51;;;;;;;9.57;6.97;;;1.10;99.90;;;;;;5071499;28;20067;-69
2023/01/22 05:08:16;;;;;;;7.55;5.97;;;1.10;99.90;;;;;;5073528;28;20048;-68
2023/01/22 05:10:42;;;;;;;10.30;6.07;;;1.10;99.90;;;;;;5072320;28;20048;-68
2023/01/22 05:13:07;;;;;;;9.55;6.38;;;1.00;99.90;;;;;;5073593;28;20044;-68
2023/01/22 05:15:33;;;;;;;9.70;6.30;;;1.00;99.90;;;;;;5072956;28;20033;-68
2023/01/22 05:17:59;;;;;;;15.65;6.80;;;1.00;99.90;;;;;;5072314;28;20043;-68
2023/01/22 05:20:25;;;;;;;8.85;7.30;;;1.00;99.90;;;;;;5073703;28;20033;-68
2023/01/22 05:22:51;;;;;;;7.80;6.97;;;1.00;99.90;;;;;;5073267;28;20496;-68
2023/01/22 05:25:16;;;;;;;10.10;6.72;;;1.10;99.90;;;;;;5072649;28;20097;-68
2023/01/22 05:27:42;;;;;;;7.55;6.05;;;1.10;99.90;;;;;;5073600;28;20070;-68
2023/01/22 05:30:08;;;;;;;8.23;5.93;;;1.00;99.90;;;;;;5073213;28;20123;-68
2023/01/22 05:32:34;;;;;;;7.68;6.30;;;1.00;99.90;;;;;;5073324;28;20047;-68
2023/01/22 05:35:00;;;;;;;8.73;6.75;;;1.00;99.90;;;;;;5071298;28;20493;-68
2023/01/22 05:37:26;;;;;;;7.47;6.53;;;1.10;99.90;;;;;;5073250;28;20036;-68
2023/01/22 05:39:51;;;;;;;7.95;6.50;;;1.10;99.90;;;;;;5073208;28;20033;-69
2023/01/22 05:42:17;;;;;;;9.65;6.38;;;1.00;99.90;;;;;;5073216;28;20032;-68
2023/01/22 05:44:43;;;;;;;7.65;6.15;;;1.00;99.90;;;;;;5072486;28;20530;-68
2023/01/22 05:47:11;;;;;;;12.77;7.28;;;1.00;99.90;;;;;;5073119;28;20500;-68
2023/01/22 05:49:36;;;;;;;7.57;6.45;;;1.00;99.90;;;;;;5073170;28;20040;-68
2023/01/22 05:52:02;;;;;;;8.88;6.75;;;1.00;99.90;;;;;;5071694;28;20051;-68
2023/01/22 05:54:28;;;;;;;9.30;6.85;;;1.10;99.90;;;;;;5070631;28;20099;-68
2023/01/22 05:56:56;;;;;;;7.55;5.25;;;1.10;99.90;;;;;;5072877;28;20446;-68
2023/01/22 05:59:21;;;;;;;7.65;6.07;;;1.00;99.90;;;;;;5073009;28;20040;-68
2023/01/22 06:01:47;;;;;;;7.47;6.30;;;1.00;99.90;;;;;;5071305;28;20044;-68
2023/01/22 06:04:12;;;;;;;8.52;6.47;;;1.10;99.90;;;;;;5071916;28;20052;-69
2023/01/22 06:06:38;;;;;;;11.13;5.82;;;1.00;99.90;;;;;;5072358;28;20037;-68
2023/01/22 06:09:04;;;;;;;7.30;6.00;;;1.00;99.90;;;;;;5072722;28;20082;-68
2023/01/22 06:11:29;;;;;;;11.95;6.35;;;1.00;99.90;;;;;;5072690;28;20048;-68
2023/01/22 06:13:55;;;;;;;8.98;6.22;;;1.00;99.90;;;;;;5071601;28;20037;-68
2023/01/22 06:16:20;;;;;;;8.60;6.05;;;0.90;99.90;;;;;;5072418;28;20032;-68
2023/01/22 06:18:46;;;;;;;8.48;6.53;;;1.00;99.90;;;;;;5072267;28;20127;-68
2023/01/22 06:21:11;;;;;;;8.63;6.00;;;1.00;99.90;;;;;;5071352;28;20048;-68
2023/01/22 06:23:37;;;;;;;7.47;6.13;;;1.00;99.90;;;;;;5070876;28;20102;-68
2023/01/22 06:26:03;;;;;;;7.72;5.78;;;1.00;99.90;;;;;;5071710;28;20054;-69
2023/01/22 06:28:30;;;;;;;12.57;5.85;;;0.90;99.90;;;;;;5072362;28;20040;-69
2023/01/22 06:31:02;;;;;;;8.85;5.22;;;0.90;99.90;;;;;;5070734;28;20048;-69
2023/01/22 06:33:28;;;;;;;10.50;6.25;;;0.90;99.90;;;;;;5070525;28;20048;-68
2023/01/22 06:35:54;;;;;;;8.88;6.07;;;1.00;99.90;;;;;;5070163;28;20044;-68
2023/01/22 06:38:21;;;;;;;6.32;5.50;;;1.00;99.90;;;;;;5070582;28;20041;-68
2023/01/22 06:40:57;;;;;;;8.57;5.95;;;1.00;99.90;;;;;;5070575;28;20570;-68
2023/01/22 06:43:24;;;;;;;7.68;5.78;;;1.00;99.90;;;;;;5072085;28;20085;-68
2023/01/22 06:45:50;;;;;;;7.32;6.13;;;0.90;99.90;;;;;;5069359;28;20152;-68
2023/01/22 06:48:16;;;;;;;9.43;5.57;;;0.90;99.90;;;;;;5071772;28;20085;-68
2023/01/22 06:50:42;;;;;;;10.98;6.65;;;1.00;99.90;;;;;;5071655;28;20412;-68
2023/01/22 06:53:08;;;;;;;8.43;5.30;;;1.00;99.90;;;;;;5070240;28;20048;-68
2023/01/22 06:55:34;;;;;;;6.20;5.25;;;1.00;99.90;;;;;;5070959;28;20075;-68
2023/01/22 06:57:59;;;;;;;9.43;6.28;;;0.90;99.90;;;;;;5071621;28;20125;-68
2023/01/22 07:00:25;;;;;;;7.50;5.78;;;0.90;99.90;;;;;;5070130;28;20091;-68
2023/01/22 07:02:51;;;;;;;9.02;6.10;;;0.90;99.90;;;;;;5071761;28;20040;-68
2023/01/22 07:05:18;;;;;;;9.98;5.95;;;0.90;99.90;;;;;;5070773;28;20040;-69
2023/01/22 07:07:45;;;;;;;9.88;6.10;;;0.80;99.90;;;;;;5069775;28;20052;-69
2023/01/22 07:10:11;;;;;;;9.15;6.20;;;0.90;99.90;;;;;;5071468;28;20493;-68
2023/01/22 07:12:36;;;;;;;7.93;6.25;;;0.90;99.90;;;;;;5071586;28;20056;-68
2023/01/22 07:15:02;;;;;;;8.73;6.05;;;0.80;99.90;;;;;;5070456;28;20556;-68
2023/01/22 07:17:28;;;;;;;7.10;6.32;;;0.90;99.90;;;;;;5071289;28;20480;-68
2023/01/22 07:19:53;;;;;;;8.05;5.93;;;0.80;99.90;;;;;;5071428;28;20075;-68
2023/01/22 07:22:19;;;;;;;9.88;6.18;;;0.80;99.90;;;;;;5071349;28;20086;-68
2023/01/22 07:24:44;;;;;;;7.20;6.40;;;0.80;99.90;;;;;;5070524;28;20089;-68
2023/01/22 07:27:10;;;;;;;11.75;6.40;;;0.80;99.90;;;;;;5070985;28;20119;-68
2023/01/22 07:29:36;;;;;;;7.88;6.47;;;0.80;99.90;;;;;;5071222;28;20055;-68
2023/01/22 07:32:02;;;;;;;9.60;5.60;;;0.80;99.90;;;;;;5070943;28;20076;-68
2023/01/22 07:34:27;;;;;;;8.10;7.30;;;0.80;99.90;;;;;;5070256;28;20044;-68
2023/01/22 07:36:53;;;;;;;7.90;6.55;;;0.80;99.90;;;;;;5070718;28;20456;-68
2023/01/22 07:39:18;;;;;;;9.30;6.53;;;0.80;99.90;;;;;;5060936;28;20031;-69
2023/01/22 07:41:44;;;;;;;10.38;5.97;;;0.80;99.90;;;;;;5059577;28;20040;-69
2023/01/22 07:44:11;;;;;;;8.15;6.15;;;0.80;99.90;;;;;;5061374;28;20497;-68
2023/01/22 07:46:39;;;;;;;9.88;6.85;;;0.90;99.90;;;;;;5070651;28;20089;-69
2023/01/22 07:49:05;;;;;;;10.85;7.13;;;0.80;99.90;;;;;;5069019;28;20040;-68
2023/01/22 07:51:31;;;;;;;9.20;5.95;;;0.80;99.90;;;;;;5070948;28;20040;-68
2023/01/22 07:53:57;;;;;;;13.77;6.53;;;0.90;99.90;;;;;;5069938;28;20164;-67
2023/01/22 07:56:22;;;;;;;7.38;6.68;;;0.90;99.90;;;;;;5054436;28;20040;-68
2023/01/22 07:58:48;;;;;;;7.65;6.45;;;0.80;99.90;;;;;;5056441;28;20067;-70
2023/01/22 08:01:14;;;;;;;9.15;7.40;;;0.90;99.90;;;;;;5066016;28;20098;-67
2023/01/22 08:03:40;;;;;;;10.75;6.90;;;0.90;99.90;;;;;;5067516;28;20048;-68
2023/01/22 08:06:10;;;;;;;10.90;6.85;;;0.80;99.90;;;;;;5066912;28;20049;-68
2023/01/22 08:08:35;;;;;;;8.15;6.35;;;0.80;99.90;;;;;;5066106;28;20393;-68
2023/01/22 08:11:01;;;;;;;12.05;6.70;;;0.80;99.90;;;;;;5070603;28;20039;-67
2023/01/22 08:13:26;;;;;;;11.75;7.15;;;0.80;99.90;;;;;;5069293;28;20048;-68
2023/01/22 08:15:53;;;;;;;10.70;7.13;;;0.80;99.90;;;;;;5069905;28;20036;-68
2023/01/22 08:18:19;;;;;;;8.55;7.30;;;0.80;99.90;;;;;;5069838;28;20094;-68
2023/01/22 08:20:45;;;;;;;11.82;8.38;;;0.90;99.90;;;;;;5070724;28;20048;-68
2023/01/22 08:23:11;;;;;;;13.80;7.45;;;0.90;99.90;;;;;;5070690;28;20102;-69
2023/01/22 08:25:37;;;;;;;10.45;7.50;;;0.80;99.90;;;;;;5069965;28;20084;-67
2023/01/22 08:28:03;;;;;;;9.70;8.15;;;0.90;99.90;;;;;;5070412;28;20087;-68
2023/01/22 08:30:33;;;;;;;9.05;7.88;;;0.90;99.90;;;;;;5069499;28;20119;-68
2023/01/22 08:33:01;;;;;;;11.75;7.95;;;0.90;99.90;;;;;;5070560;28;20037;-68
2023/01/22 08:35:28;;;;;;;18.02;9.80;;;0.90;99.90;;;;;;5068216;28;20052;-68
2023/01/22 08:37:56;;;;;;;13.93;8.20;;;0.90;99.90;;;;;;5070476;28;20111;-67
2023/01/22 08:40:22;;;;;;;10.02;8.07;;;0.90;99.90;;;;;;5070485;28;20404;-67
2023/01/22 08:42:52;;;;;;;14.60;7.35;;;1.00;99.90;;;;;;5070527;28;20086;-67
2023/01/22 08:45:18;;;;;;;11.20;8.13;;;0.90;99.90;;;;;;5069586;28;20052;-67
2023/01/22 08:47:44;;;;;;;11.20;7.32;;;0.90;99.90;;;;;;5070288;28;20493;-67
2023/01/22 08:50:10;;;;;;;10.82;7.45;;;0.90;99.90;;;;;;5070312;28;20048;-67
2023/01/22 08:52:35;;;;;;;10.13;8.00;;;1.00;99.90;;;;;;5070428;28;20037;-67
2023/01/22 08:55:01;;;;;;;10.25;7.70;;;1.00;99.90;;;;;;5069485;28;20405;-67
2023/01/22 08:57:26;;;;;;;15.30;7.93;;;1.00;99.90;;;;;;5070496;28;20041;-69
2023/01/22 08:59:52;;;;;;;12.82;7.78;;;1.00;99.90;;;;;;5070021;28;20500;-70
2023/01/22 09:02:17;;;;;;;12.55;7.70;;;1.00;99.90;;;;;;5068937;28;20048;-72
2023/01/22 09:04:44;;;;;;;10.88;7.18;;;1.10;99.90;;;;;;5068204;28;20067;-72
2023/01/22 09:07:09;;;;;;;11.43;7.60;;;1.10;99.90;;;;;;5069079;28;20622;-72
2023/01/22 09:09:35;;;;;;;14.48;10.30;;;1.10;99.90;;;;;;5071968;28;20040;-72
2023/01/22 09:12:01;;;;;;;10.05;7.82;;;1.10;99.90;;;;;;5072326;28;20048;-71
2023/01/22 09:14:26;;;;;;;10.20;8.02;;;1.10;99.90;;;;;;5071544;28;20459;-72
2023/01/22 09:16:52;;;;;;;12.02;8.05;;;1.10;99.90;;;;;;5072354;28;20040;-72
2023/01/22 09:19:18;;;;;;;9.15;7.28;;;1.10;99.90;;;;;;5073660;28;20174;-72
2023/01/22 09:21:43;;;;;;;10.77;7.65;;;1.20;99.90;;;;;;5073543;28;20067;-72
2023/01/22 09:24:09;;;;;;;11.02;7.50;;;1.20;99.90;;;;;;5071532;28;20378;-72
2023/01/22 09:26:35;;;;;;;9.98;7.80;;;1.20;99.90;;;;;;5073318;28;20040;-72
2023/01/22 09:29:04;;;;;;;10.70;7.75;;;1.20;99.90;;;;;;5073594;28;20142;-72
2023/01/22 09:31:34;;;;;;;11.90;6.60;;;1.20;99.90;;;;;;5071909;28;20071;-72
2023/01/22 09:34:00;;;;;;;13.85;8.13;;;1.20;99.90;;;;;;5072392;28;20537;-72
2023/01/22 09:36:26;;;;;;;10.15;7.00;;;1.30;99.90;;;;;;5072146;28;20391;-71
2023/01/22 09:38:52;;;;;;;11.27;7.72;;;1.20;99.90;;;;;;5073525;28;20044;-71
2023/01/22 09:41:43;;;;;;;11.85;7.63;;;1.20;99.90;;;;;;5073230;28;20044;-71
2023/01/22 09:44:21;;;;;;;12.30;7.00;;;1.30;99.90;;;;;;5071054;28;20062;-72
2023/01/22 09:47:08;;;;;;;10.40;7.57;;;1.30;99.90;;;;;;5071755;28;20051;-72
2023/01/22 09:50:15;;;;;;;9.48;6.53;;;1.30;99.90;;;;;;5073138;28;20040;-71
2023/01/22 09:52:41;;;;;;;8.57;6.85;;;1.30;99.90;;;;;;5073121;28;20043;-73
2023/01/22 09:55:15;;;;;;;10.60;8.20;;;1.30;99.90;;;;;;5070826;28;20044;-73
2023/01/22 09:57:44;;;;;;;15.23;7.57;;;1.40;99.90;;;;;;5072879;28;20037;-71
2023/01/22 10:00:28;;;;;;;9.23;7.10;;;1.30;99.90;;;;;;5071471;28;20185;-71
2023/01/22 10:03:04;;;;;;;10.30;7.90;;;1.30;99.90;;;;;;5072981;28;20424;-71
2023/01/22 10:05:39;;;;;;;10.00;7.20;;;1.30;99.90;;;;;;5070289;28;20037;-72
2023/01/22 10:08:15;;;;;;;10.18;8.18;;;1.30;99.90;;;;;;5071580;28;20467;-72
2023/01/22 10:10:41;;;;;;;19.08;9.93;;;1.30;99.90;;;;;;5071170;28;20072;-71
2023/01/22 10:13:21;;;;;;;20.67;12.02;;;1.30;99.90;;;;;;5071229;28;20072;-72
2023/01/22 10:15:49;;;;;;;11.57;8.43;;;1.30;99.90;;;;;;5071694;28;20040;-72
2023/01/22 10:18:40;;;;;;;13.63;9.85;;;1.30;99.90;;;;;;5071118;28;20045;-72
2023/01/22 10:21:13;;;;;;;12.70;8.50;;;1.30;99.90;;;;;;5071918;28;20047;-72
2023/01/22 10:23:38;;;;;;;11.38;8.23;;;1.30;99.90;;;;;;5072499;28;20080;-71
2023/01/22 10:26:15;;;;;;;13.35;9.63;;;1.40;99.90;;;;;;5071620;28;20071;-71
2023/01/22 10:28:51;;;;;;;14.50;8.70;;;1.30;99.90;;;;;;5072559;28;20048;-71
2023/01/22 10:31:28;;;;;;;10.50;7.95;;;1.40;99.90;;;;;;5072002;28;20056;-71
2023/01/22 10:34:02;;;;;;;9.70;7.82;;;1.40;99.90;;;;;;5069980;28;20041;-71
2023/01/22 10:36:29;;;;;;;9.30;8.10;;;1.40;99.90;;;;;;5071888;28;20584;-71
2023/01/22 10:39:11;;;;;;;11.18;7.88;;;1.40;99.90;;;;;;5070766;28;20048;-71
2023/01/22 10:41:36;;;;;;;10.05;7.82;;;1.40;99.90;;;;;;5070733;28;20037;-71
2023/01/22 10:44:22;;;;;;;9.75;7.25;;;1.40;99.90;;;;;;5071247;28;20090;-71
2023/01/22 10:46:49;;;;;;;11.23;8.07;;;1.50;99.90;;;;;;5071688;28;20562;-71
2023/01/22 10:49:26;;;;;;;11.60;8.15;;;1.50;99.90;;;;;;5072012;28;20044;-71
2023/01/22 10:51:57;;;;;;;12.00;8.93;;;1.50;99.90;;;;;;5071971;28;20032;-71
2023/01/22 10:54:40;;;;;;;14.10;8.07;;;1.50;99.90;;;;;;5071108;28;20072;-71
2023/01/22 10:57:30;;;;;;;13.10;8.38;;;1.50;99.90;;;;;;5053730;28;20038;-71
2023/01/22 11:00:14;;;;;;;12.00;8.50;;;1.50;99.90;;;;;;5070624;28;20400;-71
2023/01/22 11:02:45;;;;;;;10.70;8.73;;;1.50;99.90;;;;;;5070140;28;20520;-71
2023/01/22 11:05:19;;;;;;;12.68;8.80;;;1.60;99.90;;;;;;5069523;28;20037;-71
2023/01/22 11:07:57;;;;;;;10.82;8.15;;;1.60;99.90;;;;;;5070495;28;20480;-71
2023/01/22 11:10:37;;;;;;;11.43;8.10;;;1.60;99.90;;;;;;5071488;28;20505;-71
2023/01/22 11:13:27;;;;;;;9.77;7.75;;;1.60;99.90;;;;;;5071492;28;20056;-71
2023/01/22 11:16:18;;;;;;;10.52;8.27;;;1.50;99.90;;;;;;5039079;28;20060;-71
2023/01/22 11:18:54;;;;;;;13.32;9.10;;;1.50;99.90;;;;;;5059175;28;20135;-71
2023/01/22 11:21:27;;;;;;;12.68;9.20;;;1.50;99.90;;;;;;5071302;28;20045;-71
2023/01/22 11:24:13;;;;;;;14.27;8.40;;;1.50;99.90;;;;;;5069012;28;20106;-71
2023/01/22 11:27:05;;;;;;;13.40;10.07;;;1.50;99.90;;;;;;5071339;28;20037;-71
2023/01/22 11:30:01;;;;;;;11.77;7.15;;;1.60;99.90;;;;;;5071117;28;20127;-71
2023/01/22 11:33:04;;;;;;;11.15;7.88;;;1.60;99.90;;;;;;5070278;28;20076;-71
2023/01/22 11:35:35;;;;;;;13.82;9.35;;;1.60;99.90;;;;;;5068839;28;20509;-71
2023/01/22 11:38:32;;;;;;;13.45;8.23;;;1.70;99.90;;;;;;5069673;28;20044;-71
2023/01/22 11:41:16;;;;;;;11.48;8.55;;;1.60;99.90;;;;;;5071065;28;20044;-71
2023/01/22 11:43:57;;;;;;;11.77;8.73;;;1.70;99.90;;;;;;5069494;28;20083;-71
2023/01/22 11:46:53;;;;;;;14.75;8.43;;;1.70;99.90;;;;;;5071105;28;20051;-71
2023/01/22 11:49:49;;;;;;;12.95;8.23;;;1.70;99.90;;;;;;5069739;28;20045;-71
2023/01/22 11:52:45;;;;;;;11.70;7.95;;;1.70;99.90;;;;;;5045426;28;20056;-70
2023/01/22 11:55:30;;;;;;;14.35;8.23;;;1.70;99.90;;;;;;5070001;28;20036;-71
2023/01/22 11:58:10;;;;;;;11.55;7.63;;;1.70;99.90;;;;;;5070939;28;20477;-71
2023/01/22 12:01:06;;;;;;;11.95;8.15;;;1.80;99.90;;;;;;5052826;28;20051;-71
2023/01/22 12:03:44;;;;;;;11.55;7.68;;;1.70;99.90;;;;;;5069592;28;20040;-71
2023/01/22 12:06:37;;;;;;;12.10;7.65;;;1.80;99.90;;;;;;5069251;28;20586;-71
2023/01/22 12:09:25;;;;;;;10.30;7.60;;;1.80;99.90;;;;;;5052751;28;20520;-71
2023/01/22 12:12:09;;;;;;;12.52;8.25;;;1.80;99.90;;;;;;5069563;28;20044;-71
2023/01/22 12:14:46;;;;;;;11.85;7.63;;;1.90;99.90;;;;;;5068557;28;20045;-71
2023/01/22 12:17:27;;;;;;;10.80;7.75;;;1.90;99.90;;;;;;5069211;28;20137;-71
2023/01/22 12:19:53;;;;;;;14.68;8.25;;;1.90;99.90;;;;;;5069326;28;20072;-71
2023/01/22 12:22:47;;;;;;;9.98;7.28;;;1.90;99.90;;;;;;5069234;28;20117;-71
2023/01/22 12:25:21;;;;;;;10.02;6.78;;;1.90;99.90;;;;;;5068745;28;20056;-71
2023/01/22 12:27:54;;;;;;;11.65;8.10;;;1.90;99.90;;;;;;5069222;28;20075;-71
2023/01/22 12:30:29;;;;;;;10.65;7.05;;;1.90;99.90;;;;;;5069220;28;20049;-71
2023/01/22 12:32:58;;;;;;;16.63;7.30;;;1.90;99.90;;;;;;5052631;28;20428;-71
2023/01/22 12:35:26;;;;;;;13.00;7.03;;;1.90;99.90;;;;;;5068333;28;20098;-71
2023/01/22 12:37:55;;;;;;;14.07;7.78;;;1.90;99.90;;;;;;5069086;28;20056;-71
2023/01/22 12:40:26;;;;;;;11.75;7.80;;;2.00;99.90;;;;;;5069182;28;20036;-71
2023/01/22 12:42:59;;;;;;;14.35;7.63;;;2.00;99.90;;;;;;5069700;28;20040;-71
2023/01/22 12:45:49;;;;;;;10.38;8.25;;;2.00;99.90;;;;;;5072143;28;20041;-71
2023/01/22 12:48:40;;;;;;;14.05;9.90;;;2.00;99.90;;;;;;5072848;28;20041;-71
2023/01/22 12:51:39;;;;;;;16.73;8.60;;;2.00;99.90;;;;;;5072739;28;20736;-71
2023/01/22 12:54:31;;;;;;;14.52;8.02;;;2.00;99.90;;;;;;5071898;28;20311;-70
2023/01/22 12:57:10;;;;;;;15.18;9.00;;;2.00;99.90;;;;;;5072592;28;20036;-70
2023/01/22 12:59:41;;;;;;;16.27;7.75;;;2.00;99.90;;;;;;5072543;28;20040;-70
2023/01/22 13:02:25;;;;;;;11.63;8.45;;;2.00;99.90;;;;;;5074145;28;20037;-71
2023/01/22 13:04:52;;;;;;;14.23;8.75;;;2.00;99.90;;;;;;5055022;28;20064;-71
2023/01/22 13:07:31;;;;;;;18.02;9.13;;;2.00;99.90;;;;;;5073975;28;20412;-71
2023/01/22 13:10:28;;;;;;;13.05;8.98;;;2.10;99.90;;;;;;5072323;28;20043;-70